Little York, New Jersey
Current Conditions -  °F | °C
As of 12:51 AM on Thursday 18 Dec 2014 (Local Time) from KABE Reporting Station
Overcast Overcast  
Wind Chill: 29°   Ceiling: 3700
Heat Index: 37°   Visibility: 10mi
Dew Point: 23°   Wind: 12mph
Humidity: 57%   Direction: 300°WNW
Pressure: 29.94"   Gusts: 21mph
Location:  40.61°N, 75.08°W
Report Text: KABE 180551Z 30010G18KT 10SM OVC037 03/M05 A2994 RMK AO2 SLP141 T00281050 10061 20028 56005
Loading
Personal Weather Stations






























Interactive Weather Map New forecast layout! Learn more

10-Day Weather Forecast

Advertisements
Track Severe Weather on mobile